Time;durP1;ratioP1;P1;durP2;ratioP2;P2;SDS_P1;SDS_P2;PMS_P1;PMS_P2;Temp;Humidity;BMP_temperature;BMP_pressure;BME280_temperature;BME280_humidity;BME280_pressure;Samples;Min_cycle;Max_cycle;Signal;HPM_P1;HPM_P2
2022/07/13 00:00:19;;;;;;;11.45;4.72;;;;;;;-146.64;100.00;49063.00;5110317;28;20047;-70
2022/07/13 00:02:45;;;;;;;10.00;4.67;;;;;;;-146.64;100.00;44396.16;5088667;28;20038;-71
2022/07/13 00:05:10;;;;;;;8.07;5.17;;;;;;;-146.64;100.00;37696.75;5093335;28;20036;-71
2022/07/13 00:07:36;;;;;;;5.93;4.87;;;;;;;-146.64;100.00;36009.38;5109709;28;20035;-73
2022/07/13 00:10:02;;;;;;;7.67;5.50;;;;;;;-146.64;100.00;36179.09;5085269;28;20044;-70
2022/07/13 00:12:28;;;;;;;7.00;4.82;;;;;;;-146.64;100.00;35606.53;5073121;28;20039;-72
2022/07/13 00:14:53;;;;;;;12.73;5.00;;;;;;;-146.64;100.00;35680.16;5108944;28;20471;-70
2022/07/13 00:17:18;;;;;;;8.53;4.70;;;;;;;-146.64;100.00;35169.00;5109968;28;20470;-71
2022/07/13 00:19:45;;;;;;;10.27;4.33;;;;;;;-146.64;100.00;34952.31;5075691;28;20031;-71
2022/07/13 00:22:10;;;;;;;8.40;4.57;;;;;;;-146.64;100.00;34890.97;5091199;28;20066;-71
2022/07/13 00:24:35;;;;;;;9.27;5.37;;;;;;;-146.64;100.00;34893.03;5085278;28;20051;-70
2022/07/13 00:27:00;;;;;;;7.60;5.63;;;;;;;-146.64;100.00;35025.91;5081083;28;20126;-71
2022/07/13 00:29:26;;;;;;;9.80;4.50;;;;;;;-146.64;100.00;34846.00;5109212;28;20518;-71
2022/07/13 00:31:51;;;;;;;6.17;4.53;;;;;;;-146.64;100.00;34948.22;5090074;28;20036;-73
2022/07/13 00:34:17;;;;;;;9.43;4.77;;;;;;;-146.64;100.00;35060.66;5104865;28;20024;-72
2022/07/13 00:36:42;;;;;;;9.90;4.70;;;;;;;-146.64;100.00;35303.94;5072312;28;20400;-70
2022/07/13 00:39:07;;;;;;;8.70;4.60;;;;;;;-146.64;100.00;34952.31;5085975;28;20032;-71
2022/07/13 00:41:33;;;;;;;9.53;5.17;;;;;;;-146.64;100.00;34966.63;5083344;28;20026;-74
2022/07/13 00:44:08;;;;;;;6.30;5.20;;;;;;;-146.64;100.00;35279.41;5110621;28;20069;-71
2022/07/13 00:46:35;;;;;;;8.52;4.53;;;;;;;-146.64;100.00;35467.50;5094228;28;20085;-70
2022/07/13 00:49:01;;;;;;;;;;;;;;;-146.64;100.00;35359.16;5054527;28;20047;-70
2022/07/13 00:51:28;;;;;;;9.07;4.65;;;;;;;-146.64;100.00;35500.22;5102124;28;19958;-72
2022/07/13 00:53:53;;;;;;;7.20;4.40;;;;;;;-146.64;100.00;35653.56;5093840;28;20019;-70
2022/07/13 00:56:20;;;;;;;5.97;4.77;;;;;;;-146.64;100.00;35719.00;5112474;28;20040;-72
2022/07/13 00:58:46;;;;;;;11.18;4.53;;;;;;;-146.64;100.00;35778.28;5093825;28;20325;-69
2022/07/13 01:01:11;;;;;;;6.18;4.60;;;;;;;-146.64;100.00;35708.78;5113489;28;20082;-75
2022/07/13 01:03:36;;;;;;;5.63;4.00;;;;;;;-146.64;100.00;35528.84;5094456;28;20043;-76
2022/07/13 01:06:02;;;;;;;6.53;4.33;;;;;;;-146.64;100.00;35631.06;5115449;28;20070;-75
2022/07/13 01:08:27;;;;;;;7.50;4.70;;;;;;;-146.64;100.00;35565.66;5072191;28;20043;-76
2022/07/13 01:10:53;;;;;;;6.10;4.40;;;;;;;-146.64;100.00;35610.63;5068063;28;20280;-75
2022/07/13 01:13:18;;;;;;;6.97;4.53;;;;;;;-146.64;100.00;35418.44;5089253;28;20056;-74
2022/07/13 01:15:44;;;;;;;9.67;4.70;;;;;;;-146.64;100.00;35743.53;5082955;28;20081;-76
2022/07/13 01:18:15;;;;;;;8.30;4.33;;;;;;;-146.64;100.00;35510.44;5078465;28;20092;-78
2022/07/13 01:20:41;;;;;;;14.80;5.40;;;;;;;-146.64;100.00;35866.22;5096127;28;20103;-75
2022/07/13 01:23:11;;;;;;;6.25;4.30;;;;;;;-146.64;100.00;35909.16;5093524;28;20062;-75
2022/07/13 01:25:37;;;;;;;7.38;4.20;;;;;;;-146.64;100.00;35721.03;5096253;28;20478;-76
2022/07/13 01:28:02;;;;;;;5.23;4.07;;;;;;;-146.64;100.00;35800.78;5113660;28;20042;-75
2022/07/13 01:30:28;;;;;;;4.00;3.60;;;;;;;-146.64;100.00;35823.28;5096383;28;20036;-76
2022/07/13 01:32:53;;;;;;;4.93;4.10;;;;;;;-146.64;100.00;35782.38;5090814;28;20031;-76
2022/07/13 01:35:19;;;;;;;8.70;4.27;;;;;;;-146.64;100.00;35925.53;5077259;28;20127;-76
2022/07/13 01:37:45;;;;;;;5.88;4.00;;;;;;;-146.64;100.00;35958.25;5074103;28;20031;-76
2022/07/13 01:40:12;;;;;;;5.25;4.00;;;;;;;-146.64;100.00;36078.88;5091452;28;20394;-74
2022/07/13 01:42:44;;;;;;;;;;;;;;;-146.64;100.00;36179.09;5094844;28;20028;-76
2022/07/13 01:45:11;;;;;;;7.85;4.25;;;;;;;-146.64;100.00;36031.84;5096952;28;19915;-76
2022/07/13 01:47:41;;;;;;;6.57;4.43;;;;;;;-146.64;100.00;36107.53;5093779;28;20133;-76
2022/07/13 01:50:07;;;;;;;4.60;4.07;;;;;;;-146.64;100.00;36109.56;5113984;28;20051;-76
2022/07/13 01:52:34;;;;;;;9.98;4.28;;;;;;;-146.64;100.00;35970.50;5077376;28;20028;-76
2022/07/13 01:54:59;;;;;;;11.45;4.43;;;;;;;-146.64;100.00;35990.97;5092122;28;20515;-75
2022/07/13 01:57:24;;;;;;;8.47;4.20;;;;;;;-146.64;100.00;35890.75;5111443;28;20038;-76
2022/07/13 01:59:51;;;;;;;5.67;4.40;;;;;;;-146.64;100.00;35978.69;5115149;28;20027;-77
2022/07/13 02:02:16;;;;;;;6.13;4.68;;;;;;;-146.64;100.00;36074.78;5095451;28;20050;-77
2022/07/13 02:04:42;;;;;;;10.35;4.75;;;;;;;-146.64;100.00;36224.09;5095304;28;20032;-75
2022/07/13 02:07:08;;;;;;;4.93;4.20;;;;;;;-146.64;100.00;36211.81;5095929;28;20402;-76
2022/07/13 02:09:33;;;;;;;10.97;4.10;;;;;;;-146.64;100.00;36404.03;5112684;28;20038;-75
2022/07/13 02:11:59;;;;;;;8.70;4.13;;;;;;;-146.64;100.00;36402.00;5091154;28;20024;-76
2022/07/13 02:14:24;;;;;;;9.90;4.67;;;;;;;-146.64;100.00;36416.31;5113892;28;20110;-76
2022/07/13 02:16:49;;;;;;;10.43;3.97;;;;;;;-146.64;100.00;36346.78;5093510;28;20069;-75
2022/07/13 02:19:15;;;;;;;7.43;3.70;;;;;;;-146.64;100.00;36338.59;5075910;28;20414;-77
2022/07/13 02:21:40;;;;;;;9.90;4.37;;;;;;;-146.64;100.00;36361.09;5058529;28;20028;-77
2022/07/13 02:24:05;;;;;;;7.60;4.30;;;;;;;-146.64;100.00;36330.41;5100690;28;20063;-76
2022/07/13 02:26:30;;;;;;;6.00;4.10;;;;;;;-146.64;100.00;36285.44;5093036;28;20638;-76
2022/07/13 02:28:56;;;;;;;6.97;4.20;;;;;;;-146.64;100.00;36285.44;5074475;28;20139;-75
2022/07/13 02:31:21;;;;;;;7.47;4.57;;;;;;;-146.64;100.00;36301.78;5102401;28;20425;-75
2022/07/13 02:33:47;;;;;;;8.27;4.50;;;;;;;-146.64;100.00;36334.50;5094364;28;20031;-76
2022/07/13 02:36:12;;;;;;;5.00;4.37;;;;;;;-146.64;100.00;36283.38;5112929;28;20070;-76
2022/07/13 02:38:37;;;;;;;7.33;4.30;;;;;;;-146.64;100.00;36226.13;5093485;28;20039;-75
2022/07/13 02:41:03;;;;;;;5.90;4.07;;;;;;;-146.64;100.00;36264.97;5110457;28;20047;-76
2022/07/13 02:43:28;;;;;;;5.63;4.40;;;;;;;-146.64;100.00;36217.94;5093878;28;20036;-76
2022/07/13 02:45:53;;;;;;;12.07;4.57;;;;;;;-146.64;100.00;36281.34;5073479;28;20039;-76
2022/07/13 02:48:19;;;;;;;14.93;4.60;;;;;;;-146.64;100.00;36091.16;5093063;28;20042;-76
2022/07/13 02:50:45;;;;;;;8.83;3.70;;;;;;;-146.64;100.00;36203.63;5077488;28;20539;-75
2022/07/13 02:53:11;;;;;;;8.80;3.97;;;;;;;-146.64;100.00;36203.63;5084261;28;20437;-75
2022/07/13 02:55:36;;;;;;;8.77;4.20;;;;;;;-146.64;100.00;35968.47;5110902;28;20032;-77
2022/07/13 02:58:01;;;;;;;5.97;4.17;;;;;;;-146.64;100.00;36038.00;5110714;28;20080;-76
2022/07/13 03:00:27;;;;;;;4.87;3.73;;;;;;;-146.64;100.00;35735.34;5075743;28;20462;-78
2022/07/13 03:02:52;;;;;;;4.93;3.50;;;;;;;-146.64;100.00;35884.63;5094393;28;20031;-78
2022/07/13 03:05:18;;;;;;;7.70;3.90;;;;;;;-146.64;100.00;35886.66;5112564;28;20436;-77
2022/07/13 03:07:43;;;;;;;8.00;3.83;;;;;;;-146.64;100.00;35913.25;5071296;28;20047;-76
2022/07/13 03:10:08;;;;;;;8.17;4.27;;;;;;;-146.64;100.00;35808.97;5088551;28;20035;-77
2022/07/13 03:12:34;;;;;;;14.43;3.90;;;;;;;-146.64;100.00;35817.16;5111474;28;20057;-76
2022/07/13 03:14:59;;;;;;;7.23;4.13;;;;;;;-146.64;100.00;35635.16;5090675;28;20119;-77
2022/07/13 03:17:25;;;;;;;8.43;4.20;;;;;;;-146.64;100.00;35669.94;5092736;28;20031;-76
2022/07/13 03:19:50;;;;;;;13.67;4.00;;;;;;;-146.64;100.00;35819.19;5093807;28;20463;-77
2022/07/13 03:22:15;;;;;;;4.10;3.30;;;;;;;-146.64;100.00;35823.28;5110885;28;20035;-77
2022/07/13 03:24:40;;;;;;;5.13;3.57;;;;;;;-146.64;100.00;35770.13;5093462;28;20505;-77
2022/07/13 03:27:06;;;;;;;6.23;3.70;;;;;;;-146.64;100.00;35657.66;5107801;28;20072;-76
2022/07/13 03:29:31;;;;;;;9.27;3.77;;;;;;;-146.64;100.00;35532.94;5076699;28;20035;-77
2022/07/13 03:31:57;;;;;;;5.93;3.67;;;;;;;-146.64;100.00;35369.38;5093081;28;20035;-77
2022/07/13 03:34:22;;;;;;;4.70;3.90;;;;;;;-146.64;100.00;35442.97;5089990;28;20051;-77
2022/07/13 03:36:48;;;;;;;6.10;3.23;;;;;;;-146.64;100.00;35348.91;5105633;28;20055;-77
2022/07/13 03:39:13;;;;;;;6.33;3.50;;;;;;;-146.64;100.00;35688.31;5092765;28;20035;-77
2022/07/13 03:41:39;;;;;;;8.80;3.53;;;;;;;-146.64;100.00;35639.25;5110754;28;20135;-75
2022/07/13 03:44:05;;;;;;;7.57;3.63;;;;;;;-146.64;100.00;35753.75;5111340;28;20035;-75
2022/07/13 03:46:30;;;;;;;6.38;3.42;;;;;;;-146.64;100.00;35725.13;5071544;28;20020;-76
2022/07/13 03:48:55;;;;;;;6.90;3.93;;;;;;;-146.64;100.00;35941.88;5109368;28;20051;-75
2022/07/13 03:51:21;;;;;;;8.80;3.63;;;;;;;-146.64;100.00;35988.91;5088776;28;20019;-78
2022/07/13 03:53:46;;;;;;;4.70;3.27;;;;;;;-146.64;100.00;35925.53;5090582;28;20068;-76
2022/07/13 03:56:11;;;;;;;5.13;3.07;;;;;;;-146.64;100.00;35921.44;5089842;28;20063;-75
2022/07/13 03:58:37;;;;;;;11.30;3.37;;;;;;;-146.64;100.00;35974.59;5073538;28;20374;-75
2022/07/13 04:01:02;;;;;;;7.97;3.73;;;;;;;-146.64;100.00;35845.78;5089584;28;20623;-77
2022/07/13 04:03:27;;;;;;;8.47;3.47;;;;;;;-146.64;100.00;35974.59;5072188;28;20421;-76
2022/07/13 04:05:53;;;;;;;6.03;3.40;;;;;;;-146.64;100.00;35970.50;5060853;28;20031;-77
2022/07/13 04:08:18;;;;;;;5.13;3.03;;;;;;;-146.64;100.00;36040.03;5084531;28;20024;-74
2022/07/13 04:10:44;;;;;;;4.07;3.67;;;;;;;-146.64;100.00;36019.59;5106706;28;20020;-77
2022/07/13 04:13:09;;;;;;;11.65;4.03;;;;;;;-146.64;100.00;36123.88;5105351;28;20500;-77
2022/07/13 04:15:35;;;;;;;7.00;3.23;;;;;;;-146.64;100.00;36097.28;5107063;28;20043;-76
2022/07/13 04:18:00;;;;;;;6.63;3.73;;;;;;;-146.64;100.00;36056.41;5111530;28;20140;-78
2022/07/13 04:20:25;;;;;;;6.37;3.47;;;;;;;-146.64;100.00;36062.53;5111922;28;20122;-77
2022/07/13 04:22:51;;;;;;;8.63;3.97;;;;;;;-146.64;100.00;35990.97;5070356;28;20028;-76
2022/07/13 04:25:16;;;;;;;13.53;3.70;;;;;;;-146.64;100.00;35933.69;5103376;28;20035;-77
2022/07/13 04:27:41;;;;;;;4.70;3.20;;;;;;;-146.64;100.00;35939.84;5090630;28;20293;-77
2022/07/13 04:30:07;;;;;;;6.63;3.43;;;;;;;-146.64;100.00;35997.09;5089891;28;20444;-77
2022/07/13 04:32:33;;;;;;;8.10;4.45;;;;;;;-146.64;100.00;36035.94;5085037;28;20027;-75
2022/07/13 04:34:58;;;;;;;8.07;4.20;;;;;;;-146.64;100.00;36027.75;5089826;28;20036;-77
2022/07/13 04:37:23;;;;;;;7.53;3.57;;;;;;;-146.64;100.00;35982.78;5108102;28;20040;-74
2022/07/13 04:39:49;;;;;;;5.00;3.67;;;;;;;-146.64;100.00;35937.78;5092165;28;20088;-77
2022/07/13 04:42:14;;;;;;;12.03;3.73;;;;;;;-146.64;100.00;35978.69;5108030;28;20327;-76
2022/07/13 04:44:39;;;;;;;6.63;3.87;;;;;;;-146.64;100.00;35980.72;5091312;28;20114;-77
2022/07/13 04:47:05;;;;;;;5.00;4.13;;;;;;;-146.64;100.00;35978.69;5083571;28;20039;-74
2022/07/13 04:49:30;;;;;;;13.43;4.47;;;;;;;-146.64;100.00;35896.91;5091556;28;20036;-77
2022/07/13 04:51:55;;;;;;;6.77;4.13;;;;;;;-146.64;100.00;35909.16;5088947;28;20090;-76
2022/07/13 04:54:21;;;;;;;10.83;4.50;;;;;;;-146.64;100.00;35892.81;5090596;28;20768;-76
2022/07/13 04:56:48;;;;;;;4.95;4.07;;;;;;;-146.64;100.00;35802.84;5090255;28;20035;-77
2022/07/13 04:59:14;;;;;;;5.75;3.80;;;;;;;-146.64;100.00;35905.06;5091281;28;20028;-75
2022/07/13 05:01:39;;;;;;;10.43;3.85;;;;;;;-146.64;100.00;35892.81;5090956;28;20031;-76
2022/07/13 05:04:05;;;;;;;8.30;3.87;;;;;;;-146.64;100.00;35880.53;5106496;28;20391;-75
2022/07/13 05:06:31;;;;;;;7.65;3.90;;;;;;;-146.64;100.00;35872.34;5082024;28;20426;-76
2022/07/13 05:08:56;;;;;;;9.80;4.05;;;;;;;-146.64;100.00;35905.06;5082385;28;20039;-77
2022/07/13 05:11:22;;;;;;;6.73;3.70;;;;;;;-146.64;100.00;35929.63;5083530;28;20027;-76
2022/07/13 05:13:48;;;;;;;10.20;3.90;;;;;;;-146.64;100.00;35872.34;5080097;28;20391;-77
2022/07/13 05:16:13;;;;;;;;;;;;;;;-146.64;100.00;35905.06;5084971;28;20039;-77
2022/07/13 05:18:39;;;;;;;11.55;4.97;;;;;;;-146.64;100.00;35896.91;5070338;28;19916;-78
2022/07/13 05:21:04;;;;;;;7.87;4.40;;;;;;;-146.64;100.00;35876.44;5081203;28;20036;-77
2022/07/13 05:23:30;;;;;;;10.33;4.33;;;;;;;-146.64;100.00;35745.59;5082795;28;20032;-76
2022/07/13 05:25:55;;;;;;;10.80;4.30;;;;;;;-146.64;100.00;35786.47;5094649;28;20036;-76
2022/07/13 05:28:21;;;;;;;5.97;4.20;;;;;;;-146.64;100.00;35784.44;5095370;28;20038;-76
2022/07/13 05:30:46;;;;;;;8.00;3.80;;;;;;;-146.64;100.00;35692.41;5098709;28;20471;-76
2022/07/13 05:33:14;;;;;;;6.80;3.87;;;;;;;-146.64;100.00;35553.38;5115365;28;20040;-75
2022/07/13 05:35:40;;;;;;;9.48;4.25;;;;;;;-146.64;100.00;35647.44;5118810;28;20031;-75
2022/07/13 05:38:06;;;;;;;11.40;4.10;;;;;;;-146.64;100.00;35594.28;5074930;28;20047;-77
2022/07/13 05:40:31;;;;;;;5.03;3.97;;;;;;;-146.64;100.00;35618.81;5083886;28;20039;-74
2022/07/13 05:42:57;;;;;;;10.13;3.93;;;;;;;-146.64;100.00;35649.47;5067123;28;20021;-77
2022/07/13 05:45:22;;;;;;;11.13;4.10;;;;;;;-146.64;100.00;35678.09;5084890;28;20437;-76
2022/07/13 05:47:47;;;;;;;9.57;3.97;;;;;;;-146.64;100.00;35584.06;5085482;28;20027;-76
2022/07/13 05:50:13;;;;;;;9.07;4.13;;;;;;;-146.64;100.00;35512.50;5085291;28;20023;-76
2022/07/13 05:52:39;;;;;;;5.20;3.75;;;;;;;-146.64;100.00;35483.88;5080340;28;20066;-78
2022/07/13 05:55:05;;;;;;;9.25;3.90;;;;;;;-146.64;100.00;35426.63;5100580;28;20498;-77
2022/07/13 05:57:30;;;;;;;12.63;4.63;;;;;;;-146.64;100.00;35410.25;5093985;28;20027;-76
2022/07/13 05:59:56;;;;;;;7.30;3.73;;;;;;;-146.64;100.00;35375.50;5089778;28;20066;-77
2022/07/13 06:02:21;;;;;;;9.80;4.30;;;;;;;-146.64;100.00;35385.72;5088065;28;20032;-76
2022/07/13 06:04:46;;;;;;;6.17;4.13;;;;;;;-146.64;100.00;35289.63;5087252;28;20024;-77
2022/07/13 06:07:12;;;;;;;13.93;4.53;;;;;;;-146.64;100.00;35299.84;5092658;28;20024;-76
2022/07/13 06:09:37;;;;;;;8.20;4.35;;;;;;;-146.64;100.00;35263.06;5092716;28;20348;-77
2022/07/13 06:12:03;;;;;;;13.40;4.37;;;;;;;-146.64;100.00;35164.91;5084196;28;20544;-77
2022/07/13 06:14:28;;;;;;;9.33;3.50;;;;;;;-146.64;100.00;35136.28;5089651;28;20028;-78
2022/07/13 06:16:53;;;;;;;6.23;3.50;;;;;;;-146.64;100.00;35119.94;5087199;28;20410;-76
2022/07/13 06:19:19;;;;;;;7.67;4.17;;;;;;;-146.64;100.00;35095.41;5091946;28;20466;-75
2022/07/13 06:21:44;;;;;;;9.87;3.93;;;;;;;-146.64;100.00;34895.06;5105201;28;20120;-75
2022/07/13 06:24:13;;;;;;;10.23;4.50;;;;;;;-146.64;100.00;34621.13;5107061;28;20028;-78
2022/07/13 06:26:41;;;;;;;7.70;4.18;;;;;;;-146.64;100.00;34151.00;5109105;28;20030;-78
2022/07/13 06:29:06;;;;;;;14.32;4.13;;;;;;;-146.64;100.00;34433.06;5106046;28;20043;-78
2022/07/13 06:31:32;;;;;;;9.00;4.07;;;;;;;-146.64;100.00;34506.66;5073292;28;20019;-75
2022/07/13 06:33:57;;;;;;;20.60;4.33;;;;;;;-146.64;100.00;34551.63;5071668;28;20015;-77
2022/07/13 06:36:22;;;;;;;12.37;3.80;;;;;;;-146.64;100.00;34471.91;5086885;28;20508;-75
2022/07/13 06:38:49;;;;;;;13.43;4.00;;;;;;;-146.64;100.00;34322.69;5089326;28;20502;-78
2022/07/13 06:41:15;;;;;;;12.23;3.67;;;;;;;-146.64;100.00;34384.03;5108320;28;20046;-75
2022/07/13 06:43:40;;;;;;;16.63;4.47;;;;;;;-146.64;100.00;34404.47;5107553;28;20019;-77
2022/07/13 06:46:05;;;;;;;11.73;3.80;;;;;;;-146.64;100.00;34290.00;5089530;28;20138;-77
2022/07/13 06:48:31;;;;;;;13.77;4.23;;;;;;;-146.64;100.00;34236.84;5086569;28;20443;-75
2022/07/13 06:50:56;;;;;;;15.57;3.83;;;;;;;-146.64;100.00;34222.53;5092498;28;20502;-76
2022/07/13 06:53:21;;;;;;;7.50;3.90;;;;;;;-146.64;100.00;34081.50;5076025;28;20039;-76
2022/07/13 06:55:47;;;;;;;24.90;4.70;;;;;;;-146.64;100.00;33758.59;5110049;28;20034;-78
2022/07/13 06:58:12;;;;;;;8.80;4.00;;;;;;;-146.64;100.00;33942.53;5111270;28;20035;-77
2022/07/13 07:00:37;;;;;;;13.83;4.43;;;;;;;-146.64;100.00;33821.94;5093440;28;20032;-76
2022/07/13 07:03:03;;;;;;;15.60;4.50;;;;;;;-146.64;100.00;33907.78;5109809;28;20490;-77
2022/07/13 07:05:28;;;;;;;9.43;4.07;;;;;;;-146.64;100.00;33856.69;5091690;28;20031;-76
2022/07/13 07:07:53;;;;;;;7.73;4.30;;;;;;;-146.64;100.00;33777.00;5110805;28;20475;-77
2022/07/13 07:10:19;;;;;;;12.33;4.03;;;;;;;-146.64;100.00;33762.69;5109298;28;20032;-77
2022/07/13 07:12:44;;;;;;;15.17;3.20;;;;;;;-146.64;100.00;33901.66;5091375;28;20052;-78
2022/07/13 07:15:10;;;;;;;14.47;3.73;;;;;;;-146.64;100.00;34204.16;5094816;28;20034;-78
2022/07/13 07:17:48;;;;;;;12.73;3.20;;;;;;;-146.64;100.00;34195.97;5111733;28;20408;-78
2022/07/13 07:20:14;;;;;;;9.82;3.70;;;;;;;-146.64;100.00;34498.50;5111213;28;20122;-77
2022/07/13 07:22:40;;;;;;;6.53;3.70;;;;;;;-146.64;100.00;34200.06;5091877;28;20157;-76
2022/07/13 07:25:07;;;;;;;5.57;3.20;;;;;;;-146.64;100.00;34085.59;5091963;28;20499;-78
2022/07/13 07:27:32;;;;;;;8.65;3.75;;;;;;;-146.64;100.00;34122.41;5091865;28;20398;-77
2022/07/13 07:29:58;;;;;;;5.63;3.63;;;;;;;-146.64;100.00;34065.16;5114939;28;20031;-78
2022/07/13 07:32:24;;;;;;;11.05;3.38;;;;;;;-146.64;100.00;34044.72;5107208;28;20027;-76
2022/07/13 07:34:49;;;;;;;5.60;3.47;;;;;;;-146.64;100.00;34388.09;5093132;28;20133;-78
2022/07/13 07:37:15;;;;;;;7.55;3.58;;;;;;;-146.64;100.00;34273.66;5111987;28;20025;-77
2022/07/13 07:39:40;;;;;;;8.07;3.70;;;;;;;-146.64;100.00;34204.16;5076781;28;20051;-78
2022/07/13 07:42:05;;;;;;;5.60;2.93;;;;;;;-146.64;100.00;34155.09;5109159;28;20127;-77
2022/07/13 07:44:31;;;;;;;9.23;3.90;;;;;;;-146.64;100.00;34142.84;5112916;28;20042;-77
2022/07/13 07:46:56;;;;;;;5.67;3.33;;;;;;;-146.64;100.00;33975.25;5075882;28;20038;-77
2022/07/13 07:49:22;;;;;;;5.17;3.60;;;;;;;-146.64;100.00;33785.16;5094837;28;20039;-75
2022/07/13 07:51:48;;;;;;;9.27;3.63;;;;;;;-146.64;100.00;33856.69;5096735;28;20019;-78
2022/07/13 07:54:13;;;;;;;10.57;4.22;;;;;;;-146.64;100.00;33711.59;5110481;28;20034;-76
2022/07/13 07:56:38;;;;;;;6.50;3.93;;;;;;;-146.64;100.00;33848.53;5110856;28;20031;-78
2022/07/13 07:59:04;;;;;;;9.90;3.40;;;;;;;-146.64;100.00;33668.69;5092308;28;20479;-79
2022/07/13 08:01:29;;;;;;;7.87;3.90;;;;;;;-146.64;100.00;33824.00;5109591;28;20148;-77
2022/07/13 08:03:55;;;;;;;7.20;3.40;;;;;;;-146.64;100.00;33656.41;5109995;28;20027;-78
2022/07/13 08:06:20;;;;;;;6.55;3.45;;;;;;;-146.64;100.00;33570.59;5108749;28;20020;-78
2022/07/13 08:08:46;;;;;;;15.07;3.57;;;;;;;-146.64;100.00;34216.41;5091598;28;20035;-79
2022/07/13 08:11:16;;;;;;;7.30;3.47;;;;;;;-146.64;100.00;34093.78;5089502;28;20110;-77
2022/07/13 08:13:42;;;;;;;12.45;4.00;;;;;;;-146.64;100.00;34116.25;5092788;28;20039;-77
2022/07/13 08:16:07;;;;;;;8.80;3.95;;;;;;;-146.64;100.00;34081.50;5094124;28;20023;-79
2022/07/13 08:18:33;;;;;;;8.77;4.07;;;;;;;-146.64;100.00;34136.69;5090092;28;20062;-78
2022/07/13 08:20:58;;;;;;;6.90;3.57;;;;;;;-146.64;100.00;34130.56;5089477;28;20752;-77
2022/07/13 08:26:07;;;;;;;7.25;3.50;;;;;;;-146.64;100.00;34316.56;5106753;28;20031;-80
2022/07/13 08:28:32;;;;;;;12.30;3.70;;;;;;;-146.64;100.00;34396.28;5090366;28;20027;-80
2022/07/13 08:30:58;;;;;;;7.13;4.00;;;;;;;-146.64;100.00;34406.50;5108047;28;20085;-79
2022/07/13 08:38:34;;;;;;;17.00;3.87;;;;;;;-146.64;100.00;34089.69;5105623;28;20042;-77
2022/07/13 08:39:04;;;;;;;8.35;3.17;;;;;;;-146.64;100.00;34022.25;5088107;28;20340;-80
2022/07/13 08:41:30;;;;;;;6.13;3.60;;;;;;;-146.64;100.00;34330.88;5102951;28;20471;-78
2022/07/13 08:43:55;;;;;;;7.27;3.70;;;;;;;-146.64;100.00;34310.44;5075229;28;20028;-78
2022/07/13 08:46:21;;;;;;;6.00;3.90;;;;;;;-146.64;98.76;34445.34;5107396;28;20393;-78
2022/07/13 08:48:48;;;;;;;8.82;3.97;;;;;;;-146.64;98.41;34379.94;5085817;28;20028;-76
2022/07/13 08:51:16;;;;;;;14.43;3.90;;;;;;;-146.64;97.21;34584.34;5072034;28;20089;-77
2022/07/13 08:53:41;;;;;;;8.30;3.42;;;;;;;-146.64;95.57;34467.81;5087562;28;20032;-75
2022/07/13 08:56:07;;;;;;;8.17;4.03;;;;;;;-146.64;94.61;34727.44;5081723;28;20107;-78
2022/07/13 08:58:34;;;;;;;9.27;4.20;;;;;;;-146.64;93.20;34678.38;5082884;28;20052;-76
2022/07/13 09:01:00;;;;;;;10.18;3.83;;;;;;;-146.64;94.39;34514.84;5088906;28;20023;-79
2022/07/13 09:03:25;;;;;;;7.43;3.70;;;;;;;-146.64;93.71;34670.19;5089277;28;20100;-77
2022/07/13 09:05:50;;;;;;;10.83;4.20;;;;;;;-146.64;95.18;34690.63;5075334;28;20122;-77
2022/07/13 09:08:18;;;;;;;4.43;3.83;;;;;;;-146.64;95.64;34535.28;5072438;28;20080;-75
2022/07/13 09:11:10;;;;;;;10.10;4.22;;;;;;;-146.64;95.55;34653.84;5093202;28;20047;-78
2022/07/13 09:13:44;;;;;;;7.80;3.80;;;;;;;-146.64;94.44;34653.84;5073528;28;20051;-79
2022/07/13 09:16:19;;;;;;;11.10;3.63;;;;;;;-146.64;95.35;34508.72;5091944;28;20094;-78
2022/07/13 09:18:49;;;;;;;6.75;3.80;;;;;;;-146.64;93.31;34580.25;5104643;28;20068;-78
2022/07/13 09:21:15;;;;;;;12.68;3.97;;;;;;;-146.64;92.15;34488.28;5087604;28;20032;-79
2022/07/13 09:23:40;;;;;;;7.90;3.72;;;;;;;-146.64;89.35;34617.03;5075983;28;20159;-81
2022/07/13 09:26:06;;;;;;;8.15;3.30;;;;;;;-146.64;87.92;34631.34;5084858;28;20043;-82
2022/07/13 09:28:43;;;;;;;6.07;3.70;;;;;;;-146.64;86.94;34821.47;5095116;28;20483;-80
2022/07/13 09:31:08;;;;;;;5.82;4.03;;;;;;;-146.64;86.42;35097.44;5112934;28;20128;-78
2022/07/13 09:33:35;;;;;;;8.52;3.85;;;;;;;-146.64;87.37;34815.34;5091042;28;20131;-79
2022/07/13 09:36:12;;;;;;;6.45;3.25;;;;;;;-146.64;86.36;34890.97;5111693;28;20039;-79
2022/07/13 09:38:46;;;;;;;11.20;3.80;;;;;;;-146.64;85.89;34700.84;5092855;28;20028;-80
2022/07/13 09:41:14;;;;;;;5.43;3.33;;;;;;;-146.64;84.48;34825.56;5085769;28;20036;-79
2022/07/13 09:47:00;;;;;;;10.90;3.28;;;;;;;-146.64;78.50;34572.06;5091182;28;20054;-78
2022/07/13 09:49:44;;;;;;;11.65;3.20;;;;;;;-146.64;79.35;34633.41;5114180;28;20402;-80
2022/07/13 09:52:11;;;;;;;5.10;3.25;;;;;;;-146.64;78.85;34596.59;5077875;28;20392;-79
2022/07/13 09:54:41;;;;;;;8.48;3.20;;;;;;;-146.64;79.48;34690.63;5093304;28;20383;-79
2022/07/13 09:57:10;;;;;;;7.63;3.10;;;;;;;-146.64;79.63;34811.25;5077029;28;20024;-79
2022/07/13 09:59:36;;;;;;;6.63;3.03;;;;;;;-146.64;80.18;34588.44;5091125;28;20071;-78
2022/07/13 10:02:03;;;;;;;6.25;2.80;;;;;;;-146.64;77.68;34895.06;5074909;28;20475;-78
2022/07/13 10:04:29;;;;;;;15.93;3.00;;;;;;;-146.64;77.58;34792.84;5111614;28;20471;-78
2022/07/13 10:06:55;;;;;;;9.45;2.80;;;;;;;-146.64;75.33;34886.88;5076621;28;20514;-80
2022/07/13 10:09:26;;;;;;;12.35;3.22;;;;;;;-146.64;74.33;35164.91;5093510;28;20054;-77
2022/07/13 10:11:51;;;;;;;8.50;3.10;;;;;;;-146.64;76.46;35144.47;5081379;28;20112;-78
2022/07/13 10:14:18;;;;;;;8.02;3.20;;;;;;;-146.64;77.83;34940.03;5108178;28;20051;-79
2022/07/13 10:16:43;;;;;;;;;;;;;;;-146.64;80.02;34835.78;5089498;28;20035;-79
2022/07/13 10:19:10;;;;;;;5.97;3.13;;;;;;;-146.64;79.27;34858.25;5087929;28;19945;-77
2022/07/13 10:22:02;;;;;;;6.20;3.35;;;;;;;-146.64;80.08;35072.91;5091110;28;20035;-77
2022/07/13 10:24:30;;;;;;;5.05;3.00;;;;;;;-146.64;79.30;35154.69;5085593;28;20115;-78
2022/07/13 10:27:21;;;;;;;4.63;3.15;;;;;;;-146.64;80.07;35093.38;5110368;28;20053;-77
2022/07/13 10:29:50;;;;;;;9.30;3.95;;;;;;;-146.64;79.95;34997.28;5093841;28;20043;-78
2022/07/13 10:32:46;;;;;;;6.15;3.42;;;;;;;-146.64;81.03;34813.28;5108278;28;20024;-75
2022/07/13 10:35:16;;;;;;;8.75;3.60;;;;;;;-146.64;81.04;34690.63;5050499;28;20058;-76
2022/07/13 10:37:58;;;;;;;6.75;3.42;;;;;;;-146.64;79.65;34604.78;5091862;28;20027;-76
2022/07/13 10:40:24;;;;;;;15.60;4.13;;;;;;;-146.64;78.54;34420.81;5109101;28;20028;-79
2022/07/13 10:43:00;;;;;;;11.90;4.15;;;;;;;-146.64;76.67;34498.50;5091233;28;20070;-78
2022/07/13 10:45:34;;;;;;;9.27;2.93;;;;;;;-146.64;76.92;34151.00;5092470;28;20444;-77
2022/07/13 10:48:05;;;;;;;11.13;3.50;;;;;;;-146.64;76.00;34273.66;5109838;28;20043;-77
2022/07/13 10:50:38;;;;;;;6.38;2.97;;;;;;;-146.64;77.33;34410.59;5091516;28;20019;-77
2022/07/13 10:53:03;;;;;;;8.38;2.72;;;;;;;-146.64;76.74;34588.44;5092759;28;20115;-76
2022/07/13 10:55:33;;;;;;;9.53;2.90;;;;;;;-146.64;76.69;34396.28;5093498;28;20471;-78
2022/07/13 10:58:00;;;;;;;5.03;3.33;;;;;;;-146.64;74.69;34175.53;5108353;28;20032;-77
2022/07/13 11:00:43;;;;;;;6.20;2.55;;;;;;;-146.64;73.54;34087.66;5091574;28;20111;-74
2022/07/13 11:03:23;;;;;;;4.32;2.55;;;;;;;-146.64;69.45;33922.09;5088864;28;20111;-75
2022/07/13 11:06:08;;;;;;;8.85;2.63;;;;;;;-146.64;68.81;34294.09;5099710;28;20024;-75
2022/07/13 11:08:34;;;;;;;7.63;3.03;;;;;;;-146.64;69.38;34461.69;5091835;28;20106;-77
2022/07/13 11:11:18;;;;;;;8.57;2.45;;;;;;;-146.64;68.86;34193.94;5090800;28;20479;-78
2022/07/13 11:13:45;;;;;;;3.53;2.65;;;;;;;-146.64;68.59;34034.50;5071329;28;20076;-79
2022/07/13 11:16:13;;;;;;;3.35;1.90;;;;;;;-146.64;67.46;33940.50;5077839;28;20023;-78